Time;durP1;ratioP1;P1;durP2;ratioP2;P2;SDS_P1;SDS_P2;PMS_P1;PMS_P2;Temp;Humidity;BMP_temperature;BMP_pressure;BME280_temperature;BME280_humidity;BME280_pressure;Samples;Min_cycle;Max_cycle;Signal;HPM_P1;HPM_P2
2022/05/15 00:02:28;;;;;;;41.53;10.23;;;;;;;;;;5050226;28;20045;-59
2022/05/15 00:04:55;;;;;;;36.37;9.57;;;;;;;;;;5050493;28;20094;-59
2022/05/15 00:07:21;;;;;;;44.77;10.43;;;;;;;;;;5055749;28;20066;-59
2022/05/15 00:09:47;;;;;;;40.37;9.47;;;;;;;;;;5065115;28;20048;-59
2022/05/15 00:12:16;;;;;;;47.40;11.20;;;;;;;;;;5032899;28;20053;-59
2022/05/15 00:14:42;;;;;;;40.17;9.33;;;;;;;;;;5047080;28;20037;-59
2022/05/15 00:17:08;;;;;;;47.10;10.97;;;;;;;;;;5058864;28;20043;-59
2022/05/15 00:19:34;;;;;;;47.03;14.00;;;;;;;;;;5065772;28;20049;-59
2022/05/15 00:22:00;;;;;;;38.67;10.27;;;;;;;;;;5050391;28;20132;-59
2022/05/15 00:24:28;;;;;;;42.10;11.13;;;;;;;;;;5050198;28;20049;-59
2022/05/15 00:26:54;;;;;;;47.67;11.73;;;;;;;;;;5060853;28;20538;-59
2022/05/15 00:29:21;;;;;;;46.03;10.87;;;;;;;;;;5061351;28;20037;-59
2022/05/15 00:31:47;;;;;;;49.87;12.63;;;;;;;;;;5050046;28;20148;-59
2022/05/15 00:34:13;;;;;;;48.27;12.07;;;;;;;;;;5050061;28;20491;-59
2022/05/15 00:36:39;;;;;;;35.27;10.00;;;;;;;;;;5049783;28;20494;-59
2022/05/15 00:39:07;;;;;;;42.93;11.07;;;;;;;;;;5050207;28;20049;-59
2022/05/15 00:41:33;;;;;;;31.53;9.77;;;;;;;;;;5050009;28;20049;-59
2022/05/15 00:44:00;;;;;;;25.70;9.87;;;;;;;;;;5048727;28;20151;-59
2022/05/15 00:46:28;;;;;;;44.20;10.57;;;;;;;;;;5050294;28;20086;-59
2022/05/15 00:48:55;;;;;;;45.27;11.03;;;;;;;;;;5049879;28;20041;-59
2022/05/15 00:51:25;;;;;;;35.57;10.50;;;;;;;;;;5050085;28;20100;-59
2022/05/15 00:53:54;;;;;;;44.67;10.63;;;;;;;;;;5039089;28;20080;-59
2022/05/15 00:56:22;;;;;;;37.03;11.37;;;;;;;;;;5030259;28;20072;-59
2022/05/15 00:58:55;;;;;;;40.00;9.77;;;;;;;;;;5029752;28;20045;-59
2022/05/15 01:01:21;;;;;;;40.35;9.93;;;;;;;;;;5030128;28;20053;-59
2022/05/15 01:03:47;;;;;;;45.73;10.43;;;;;;;;;;5030955;28;20060;-59
2022/05/15 01:06:13;;;;;;;45.37;10.97;;;;;;;;;;5036898;28;20037;-59
2022/05/15 01:08:39;;;;;;;43.17;10.80;;;;;;;;;;5046137;28;20049;-59
2022/05/15 01:11:11;;;;;;;45.40;11.03;;;;;;;;;;5048933;28;20052;-59
2022/05/15 01:13:38;;;;;;;36.33;11.47;;;;;;;;;;5048796;28;20127;-59
2022/05/15 01:16:05;;;;;;;39.63;10.00;;;;;;;;;;5048752;28;20052;-59
2022/05/15 01:18:33;;;;;;;37.13;12.03;;;;;;;;;;5047619;28;20036;-59
2022/05/15 01:20:59;;;;;;;42.80;12.47;;;;;;;;;;5048619;28;20077;-59
2022/05/15 01:23:26;;;;;;;44.90;10.87;;;;;;;;;;5048999;28;20501;-59
2022/05/15 01:25:52;;;;;;;40.40;11.00;;;;;;;;;;5040394;28;20064;-59
2022/05/15 01:28:20;;;;;;;41.27;10.60;;;;;;;;;;5030612;28;20060;-59
2022/05/15 01:30:48;;;;;;;40.47;10.73;;;;;;;;;;5037341;28;20056;-59
2022/05/15 01:33:14;;;;;;;43.40;11.40;;;;;;;;;;5030283;28;20411;-59
2022/05/15 01:35:40;;;;;;;48.03;12.10;;;;;;;;;;5048797;28;20087;-59
2022/05/15 01:38:07;;;;;;;46.40;10.53;;;;;;;;;;5032946;28;20049;-59
2022/05/15 01:40:34;;;;;;;50.13;13.47;;;;;;;;;;5037212;28;20041;-59
2022/05/15 01:43:00;;;;;;;39.83;10.97;;;;;;;;;;5028493;28;20426;-59
2022/05/15 01:45:26;;;;;;;44.70;11.90;;;;;;;;;;5046408;28;20052;-59
2022/05/15 01:47:52;;;;;;;49.90;13.53;;;;;;;;;;5048688;28;20033;-59
2022/05/15 01:50:19;;;;;;;42.93;13.03;;;;;;;;;;5048983;28;20052;-59
2022/05/15 01:52:45;;;;;;;44.77;10.63;;;;;;;;;;5046625;28;20091;-59
2022/05/15 01:55:12;;;;;;;37.93;11.40;;;;;;;;;;5038700;28;20457;-59
2022/05/15 01:57:38;;;;;;;44.77;11.77;;;;;;;;;;5032537;28;20047;-59
2022/05/15 02:00:06;;;;;;;50.23;12.50;;;;;;;;;;5036253;28;20046;-59
2022/05/15 02:02:32;;;;;;;51.37;11.57;;;;;;;;;;5036281;28;20041;-59
2022/05/15 02:04:58;;;;;;;36.50;10.40;;;;;;;;;;5040157;28;20132;-59
2022/05/15 02:07:24;;;;;;;38.87;11.47;;;;;;;;;;5034502;28;20084;-59
2022/05/15 02:09:50;;;;;;;33.67;10.37;;;;;;;;;;5045814;28;20510;-59
2022/05/15 02:12:16;;;;;;;42.83;10.73;;;;;;;;;;5039995;28;20084;-59
2022/05/15 02:14:42;;;;;;;46.17;10.17;;;;;;;;;;5032677;28;20042;-59
2022/05/15 02:17:08;;;;;;;37.13;10.57;;;;;;;;;;5040008;28;20525;-59
2022/05/15 02:19:35;;;;;;;35.87;10.30;;;;;;;;;;5039504;28;20048;-59
2022/05/15 02:22:00;;;;;;;39.53;10.57;;;;;;;;;;5031550;28;20392;-60
2022/05/15 02:24:27;;;;;;;44.07;12.27;;;;;;;;;;5033908;28;20056;-59
2022/05/15 02:26:53;;;;;;;42.00;11.90;;;;;;;;;;5039135;28;20052;-60
2022/05/15 02:29:19;;;;;;;37.23;10.93;;;;;;;;;;5040278;28;20453;-59
2022/05/15 02:31:45;;;;;;;45.00;10.90;;;;;;;;;;5039624;28;21395;-59
2022/05/15 02:34:11;;;;;;;35.83;10.83;;;;;;;;;;5031702;28;20072;-59
2022/05/15 02:36:37;;;;;;;45.93;11.93;;;;;;;;;;5039821;28;20041;-59
2022/05/15 02:39:03;;;;;;;48.57;11.50;;;;;;;;;;5036016;28;20052;-59
2022/05/15 02:41:30;;;;;;;53.50;12.03;;;;;;;;;;5044608;28;20069;-60
2022/05/15 02:43:56;;;;;;;34.97;10.87;;;;;;;;;;5028350;28;20053;-59
2022/05/15 02:46:22;;;;;;;51.20;14.90;;;;;;;;;;5031596;28;20064;-59
2022/05/15 02:51:33;;;;;;;41.57;11.90;;;;;;;;;;5046880;28;20045;-59
2022/05/15 02:53:59;;;;;;;40.77;10.60;;;;;;;;;;5032252;28;20136;-59
2022/05/15 02:56:27;;;;;;;27.33;9.13;;;;;;;;;;5040111;28;20069;-59
2022/05/15 02:58:52;;;;;;;17.27;7.57;;;;;;;;;;5041665;28;20052;-59
2022/05/15 03:01:19;;;;;;;24.73;9.10;;;;;;;;;;5038516;28;20042;-60
2022/05/15 03:03:45;;;;;;;21.53;8.77;;;;;;;;;;5037443;28;20038;-60
2022/05/15 03:06:11;;;;;;;27.97;9.53;;;;;;;;;;5038010;28;20068;-60
2022/05/15 03:08:39;;;;;;;40.83;12.50;;;;;;;;;;5039832;28;20175;-59
2022/05/15 03:11:05;;;;;;;38.60;10.43;;;;;;;;;;5042439;28;20449;-59
2022/05/15 03:13:31;;;;;;;35.13;10.77;;;;;;;;;;5042826;28;20137;-59
2022/05/15 03:15:58;;;;;;;41.87;12.93;;;;;;;;;;5040918;28;20060;-59
2022/05/15 03:18:24;;;;;;;38.10;10.97;;;;;;;;;;5039652;28;20045;-59
2022/05/15 03:20:50;;;;;;;45.27;12.70;;;;;;;;;;5037919;28;20513;-60
2022/05/15 03:23:16;;;;;;;40.80;11.77;;;;;;;;;;5038801;28;20045;-60
2022/05/15 03:25:42;;;;;;;41.93;11.87;;;;;;;;;;5043206;28;20049;-60
2022/05/15 03:28:11;;;;;;;40.67;12.53;;;;;;;;;;5042391;28;20041;-60
2022/05/15 03:30:38;;;;;;;44.73;13.43;;;;;;;;;;5036261;28;20056;-63
2022/05/15 03:33:04;;;;;;;47.13;14.80;;;;;;;;;;5044610;28;20128;-60
2022/05/15 03:35:30;;;;;;;43.67;12.80;;;;;;;;;;5050134;28;20086;-59
2022/05/15 03:37:56;;;;;;;37.10;10.90;;;;;;;;;;5042830;28;20094;-60
2022/05/15 03:40:22;;;;;;;46.27;13.70;;;;;;;;;;5051287;28;20045;-60
2022/05/15 03:42:48;;;;;;;48.43;13.70;;;;;;;;;;5043067;28;20602;-59
2022/05/15 03:45:14;;;;;;;51.83;14.57;;;;;;;;;;5044861;28;20124;-60
2022/05/15 03:47:48;;;;;;;43.30;13.43;;;;;;;;;;5039908;28;20041;-60
2022/05/15 03:50:14;;;;;;;45.60;13.65;;;;;;;;;;5044661;28;20032;-60
2022/05/15 03:52:40;;;;;;;45.37;14.07;;;;;;;;;;5049964;28;20052;-60
2022/05/15 03:55:07;;;;;;;52.27;14.30;;;;;;;;;;5049925;28;20045;-60
2022/05/15 03:57:33;;;;;;;33.87;13.10;;;;;;;;;;5049918;28;20041;-60
2022/05/15 03:59:59;;;;;;;39.43;11.17;;;;;;;;;;5049960;28;20132;-60
2022/05/15 04:02:25;;;;;;;30.70;12.97;;;;;;;;;;5043775;28;20121;-60
2022/05/15 04:04:51;;;;;;;36.87;11.73;;;;;;;;;;5048256;28;20640;-60
2022/05/15 04:07:17;;;;;;;34.30;11.47;;;;;;;;;;5050809;28;20163;-60
2022/05/15 04:09:43;;;;;;;41.27;11.93;;;;;;;;;;5041848;28;20041;-60
2022/05/15 04:12:10;;;;;;;32.53;11.70;;;;;;;;;;5049485;28;20088;-60
2022/05/15 04:14:36;;;;;;;38.10;12.17;;;;;;;;;;5042580;28;20048;-61
2022/05/15 04:17:02;;;;;;;38.23;12.40;;;;;;;;;;5041285;28;20046;-60
2022/05/15 04:19:28;;;;;;;39.97;12.37;;;;;;;;;;5034862;28;20041;-61
2022/05/15 04:21:58;;;;;;;38.57;12.57;;;;;;;;;;5030198;28;20565;-61
2022/05/15 04:24:24;;;;;;;32.90;9.77;;;;;;;;;;5030541;28;20132;-61
2022/05/15 04:26:50;;;;;;;50.03;14.00;;;;;;;;;;5035403;28;20129;-60
2022/05/15 04:29:16;;;;;;;34.30;10.50;;;;;;;;;;5041385;28;20124;-61
2022/05/15 04:31:42;;;;;;;42.77;12.90;;;;;;;;;;5043043;28;20057;-61
2022/05/15 04:34:08;;;;;;;49.03;14.60;;;;;;;;;;5048702;28;20142;-61
2022/05/15 04:36:35;;;;;;;30.00;11.63;;;;;;;;;;5045850;28;20052;-61
2022/05/15 04:39:01;;;;;;;37.47;12.33;;;;;;;;;;5040087;28;20470;-61
2022/05/15 04:41:28;;;;;;;50.73;13.87;;;;;;;;;;5041140;28;20120;-61
2022/05/15 04:43:54;;;;;;;51.33;14.30;;;;;;;;;;5048049;28;20518;-61
2022/05/15 04:46:22;;;;;;;51.07;14.67;;;;;;;;;;5033676;28;20044;-61
2022/05/15 04:48:48;;;;;;;54.37;16.73;;;;;;;;;;5044712;28;20337;-61
2022/05/15 04:51:14;;;;;;;44.83;13.50;;;;;;;;;;5048816;28;20041;-61
2022/05/15 04:53:40;;;;;;;52.83;16.37;;;;;;;;;;5048741;28;20048;-61
2022/05/15 04:56:06;;;;;;;58.53;15.17;;;;;;;;;;5048664;28;20037;-61
2022/05/15 04:58:32;;;;;;;58.00;16.00;;;;;;;;;;5049113;28;20037;-61
2022/05/15 05:00:58;;;;;;;45.13;14.90;;;;;;;;;;5040952;28;20036;-61
2022/05/15 05:03:24;;;;;;;55.37;17.17;;;;;;;;;;5033221;28;20765;-61
2022/05/15 05:05:50;;;;;;;62.93;16.53;;;;;;;;;;5047710;28;20144;-61
2022/05/15 05:08:16;;;;;;;46.27;15.73;;;;;;;;;;5038898;28;20396;-61
2022/05/15 05:10:42;;;;;;;44.70;14.83;;;;;;;;;;5037562;28;20048;-61
2022/05/15 05:13:08;;;;;;;52.47;16.07;;;;;;;;;;5045678;28;20138;-61
2022/05/15 05:15:35;;;;;;;46.43;14.20;;;;;;;;;;5029331;28;20153;-61
2022/05/15 05:18:00;;;;;;;43.63;13.37;;;;;;;;;;5044466;28;20033;-61
2022/05/15 05:20:26;;;;;;;39.77;13.13;;;;;;;;;;5045857;28;20039;-61
2022/05/15 05:22:53;;;;;;;42.53;13.90;;;;;;;;;;5041546;28;20693;-61
2022/05/15 05:25:19;;;;;;;51.70;14.33;;;;;;;;;;5048307;28;20052;-61
2022/05/15 05:27:45;;;;;;;39.77;14.37;;;;;;;;;;5048581;28;20036;-61
2022/05/15 05:30:13;;;;;;;49.57;14.53;;;;;;;;;;5040103;28;20049;-61
2022/05/15 05:32:39;;;;;;;40.27;13.10;;;;;;;;;;5040514;28;20053;-61
2022/05/15 05:35:05;;;;;;;30.67;10.17;;;;;;;;;;5047960;28;20041;-61
2022/05/15 05:37:31;;;;;;;45.83;16.17;;;;;;;;;;5037491;28;20369;-61
2022/05/15 05:39:57;;;;;;;40.97;13.27;;;;;;;;;;5042508;28;20044;-61
2022/05/15 05:42:23;;;;;;;46.10;13.23;;;;;;;;;;5029858;28;20119;-62
2022/05/15 05:44:49;;;;;;;40.70;12.57;;;;;;;;;;5040657;28;20044;-61
2022/05/15 05:47:23;;;;;;;41.93;11.60;;;;;;;;;;5040205;28;20037;-59
2022/05/15 05:49:49;;;;;;;46.13;12.68;;;;;;;;;;5032789;28;20476;-59
2022/05/15 05:52:15;;;;;;;41.70;11.83;;;;;;;;;;5032623;28;20385;-59
2022/05/15 05:54:41;;;;;;;36.97;11.50;;;;;;;;;;5036754;28;20049;-62
2022/05/15 05:57:08;;;;;;;43.27;12.47;;;;;;;;;;5042051;28;20052;-62
2022/05/15 05:59:34;;;;;;;36.90;10.87;;;;;;;;;;5047111;28;20099;-61
2022/05/15 06:02:00;;;;;;;36.00;10.80;;;;;;;;;;5036488;28;20045;-62
2022/05/15 06:04:46;;;;;;;40.77;11.83;;;;;;;;;;5036496;28;20045;-62
2022/05/15 06:07:13;;;;;;;31.17;10.43;;;;;;;;;;5047697;28;20060;-61
2022/05/15 06:09:42;;;;;;;34.67;10.87;;;;;;;;;;5045264;28;20127;-62
2022/05/15 06:12:08;;;;;;;28.80;9.90;;;;;;;;;;5033331;28;20044;-61
2022/05/15 06:14:34;;;;;;;30.30;10.40;;;;;;;;;;5035924;28;20111;-62
2022/05/15 06:17:00;;;;;;;45.20;12.53;;;;;;;;;;5039847;28;20045;-62
2022/05/15 06:19:27;;;;;;;26.70;9.10;;;;;;;;;;5046854;28;20052;-61
2022/05/15 06:21:53;;;;;;;28.57;9.97;;;;;;;;;;5032283;28;20045;-61
2022/05/15 06:24:19;;;;;;;25.13;8.93;;;;;;;;;;5047368;28;20052;-61
2022/05/15 06:26:45;;;;;;;33.83;9.23;;;;;;;;;;5056921;28;20040;-62
2022/05/15 06:29:11;;;;;;;34.03;8.40;;;;;;;;;;5061849;28;20194;-62
2022/05/15 06:31:37;;;;;;;32.73;9.97;;;;;;;;;;5039317;28;20140;-62
2022/05/15 06:34:04;;;;;;;22.47;7.43;;;;;;;;;;5049999;28;20071;-61
2022/05/15 06:36:30;;;;;;;24.60;7.57;;;;;;;;;;5041981;28;20041;-62
2022/05/15 06:38:56;;;;;;;23.00;6.73;;;;;;;;;;5050772;28;20124;-62
2022/05/15 06:41:22;;;;;;;26.00;8.00;;;;;;;;;;5042018;28;20847;-62
2022/05/15 06:43:49;;;;;;;24.87;8.03;;;;;;;;;;5031991;28;20428;-62
2022/05/15 06:46:15;;;;;;;21.93;6.57;;;;;;;;;;5046669;28;20072;-62
2022/05/15 06:48:41;;;;;;;21.13;6.30;;;;;;;;;;5042792;28;20518;-62
2022/05/15 06:51:07;;;;;;;22.00;6.13;;;;;;;;;;5053684;28;20487;-62
2022/05/15 06:53:34;;;;;;;16.67;5.67;;;;;;;;;;5056334;28;20461;-62
2022/05/15 06:58:45;;;;;;;17.83;6.43;;;;;;;;;;5045968;28;20072;-61
2022/05/15 07:01:12;;;;;;;20.17;7.03;;;;;;;;;;5043813;28;20103;-61
2022/05/15 07:03:38;;;;;;;18.60;6.13;;;;;;;;;;5052006;28;20462;-62
2022/05/15 07:06:04;;;;;;;23.27;6.30;;;;;;;;;;5051284;28;20422;-62
2022/05/15 07:08:31;;;;;;;17.77;6.50;;;;;;;;;;5050578;28;20052;-62
2022/05/15 07:10:57;;;;;;;26.53;7.67;;;;;;;;;;5053045;28;20128;-62
2022/05/15 07:13:23;;;;;;;22.33;5.77;;;;;;;;;;5051673;28;20580;-62
2022/05/15 07:15:49;;;;;;;21.60;5.67;;;;;;;;;;5069011;28;20079;-62
2022/05/15 07:18:15;;;;;;;25.40;6.13;;;;;;;;;;5058003;28;20041;-61
2022/05/15 07:20:41;;;;;;;16.27;4.80;;;;;;;;;;5047467;28;20422;-61
2022/05/15 07:23:07;;;;;;;26.80;6.63;;;;;;;;;;5038073;28;20055;-62
2022/05/15 07:25:33;;;;;;;14.83;5.03;;;;;;;;;;5039278;28;20127;-61
2022/05/15 07:28:02;;;;;;;14.80;5.03;;;;;;;;;;5049684;28;20131;-62
2022/05/15 07:30:28;;;;;;;19.23;4.77;;;;;;;;;;5048963;28;20494;-61
2022/05/15 07:32:54;;;;;;;21.87;6.03;;;;;;;;;;5050641;28;20132;-61
2022/05/15 07:35:20;;;;;;;16.07;5.40;;;;;;;;;;5062017;28;20052;-61
2022/05/15 07:37:46;;;;;;;17.17;4.87;;;;;;;;;;5037796;28;20055;-61
2022/05/15 07:40:12;;;;;;;19.10;5.23;;;;;;;;;;5031871;28;20454;-61
2022/05/15 07:42:39;;;;;;;14.67;4.83;;;;;;;;;;5039752;28;20045;-61
2022/05/15 07:45:05;;;;;;;17.23;5.80;;;;;;;;;;5050464;28;20091;-61
2022/05/15 07:47:31;;;;;;;17.77;5.07;;;;;;;;;;5046297;28;20414;-61
2022/05/15 07:49:58;;;;;;;15.13;4.40;;;;;;;;;;5045062;28;20069;-62
2022/05/15 07:52:24;;;;;;;17.20;4.23;;;;;;;;;;5046448;28;20386;-61
2022/05/15 07:54:50;;;;;;;18.47;4.40;;;;;;;;;;5047245;28;20081;-61
2022/05/15 07:57:17;;;;;;;14.40;4.20;;;;;;;;;;5031491;28;20037;-61
2022/05/15 07:59:43;;;;;;;15.80;4.80;;;;;;;;;;5038330;28;20122;-61
2022/05/15 08:02:09;;;;;;;22.17;4.60;;;;;;;;;;5047479;28;20517;-61
2022/05/15 08:08:00;;;;;;;19.00;4.30;;;;;;;;;;5046588;28;20098;-61
2022/05/15 08:10:07;;;;;;;10.70;3.30;;;;;;;;;;5047951;28;20055;-61
2022/05/15 08:12:34;;;;;;;15.60;4.30;;;;;;;;;;5049496;28;20123;-60
2022/05/15 08:15:00;;;;;;;17.53;3.73;;;;;;;;;;5039647;28;20053;-61
2022/05/15 08:17:26;;;;;;;13.57;4.13;;;;;;;;;;5051215;28;20037;-61
2022/05/15 08:25:22;;;;;;;16.67;4.13;;;;;;;;;;5048784;28;20075;-61
2022/05/15 08:27:48;;;;;;;16.07;4.23;;;;;;;;;;5042008;28;20045;-61
2022/05/15 08:30:15;;;;;;;17.70;5.37;;;;;;;;;;5036572;28;20136;-61
2022/05/15 08:32:41;;;;;;;18.97;5.00;;;;;;;;;;5051230;28;20048;-61
2022/05/15 08:35:08;;;;;;;13.57;4.23;;;;;;;;;;5049414;28;20072;-61
2022/05/15 08:37:34;;;;;;;19.43;3.90;;;;;;;;;;5042847;28;20038;-61
2022/05/15 08:40:00;;;;;;;13.27;4.37;;;;;;;;;;5040006;28;20457;-61
2022/05/15 08:42:39;;;;;;;16.37;3.90;;;;;;;;;;5049901;28;20041;-61
2022/05/15 08:45:09;;;;;;;20.77;4.80;;;;;;;;;;5057151;28;20118;-61
2022/05/15 08:47:44;;;;;;;18.80;5.40;;;;;;;;;;5053036;28;20056;-61
2022/05/15 08:50:13;;;;;;;16.17;4.47;;;;;;;;;;5047685;28;20041;-59
2022/05/15 08:52:54;;;;;;;13.67;4.60;;;;;;;;;;5041298;28;20049;-59
2022/05/15 08:55:24;;;;;;;13.43;4.10;;;;;;;;;;5047863;28;20502;-59
2022/05/15 08:57:55;;;;;;;22.07;4.80;;;;;;;;;;5055549;28;20403;-59
2022/05/15 09:00:24;;;;;;;13.37;3.83;;;;;;;;;;5045262;28;20044;-60
2022/05/15 09:02:50;;;;;;;13.97;4.10;;;;;;;;;;5042093;28;20038;-59
2022/05/15 09:05:16;;;;;;;12.47;3.97;;;;;;;;;;5039878;28;20044;-59
2022/05/15 09:08:01;;;;;;;17.50;5.30;;;;;;;;;;5048034;28;20052;-59
2022/05/15 09:10:37;;;;;;;15.17;4.57;;;;;;;;;;5041171;28;20054;-60
2022/05/15 09:13:18;;;;;;;15.52;4.70;;;;;;;;;;5054976;28;20458;-60
2022/05/15 09:15:57;;;;;;;12.90;4.32;;;;;;;;;;5048262;28;20102;-60
2022/05/15 09:18:23;;;;;;;18.90;4.53;;;;;;;;;;5059978;28;20048;-60
2022/05/15 09:20:52;;;;;;;16.27;4.43;;;;;;;;;;5046187;28;20128;-60
2022/05/15 09:23:26;;;;;;;15.75;4.53;;;;;;;;;;5048163;28;20052;-60
2022/05/15 09:25:54;;;;;;;15.80;4.40;;;;;;;;;;5056489;28;20048;-60
2022/05/15 09:28:20;;;;;;;18.40;4.85;;;;;;;;;;5043618;28;20228;-60
2022/05/15 09:30:48;;;;;;;15.43;4.47;;;;;;;;;;5042282;28;20064;-60
2022/05/15 09:33:23;;;;;;;13.82;5.00;;;;;;;;;;5040054;28;20040;-60
2022/05/15 09:35:49;;;;;;;10.52;4.05;;;;;;;;;;5040552;28;20667;-60
2022/05/15 09:38:29;;;;;;;12.98;4.70;;;;;;;;;;5039744;28;20503;-60
2022/05/15 09:43:50;;;;;;;13.98;4.47;;;;;;;;;;5034846;28;20399;-60
2022/05/15 09:46:18;;;;;;;20.85;5.60;;;;;;;;;;5043904;28;20068;-60
2022/05/15 09:48:52;;;;;;;16.10;4.53;;;;;;;;;;5029079;28;20160;-60
2022/05/15 09:51:26;;;;;;;14.15;4.45;;;;;;;;;;5030428;28;20045;-60
2022/05/15 09:53:53;;;;;;;13.95;3.78;;;;;;;;;;5040324;28;20048;-60
2022/05/15 09:56:19;;;;;;;16.17;4.82;;;;;;;;;;5046647;28;20048;-60
2022/05/15 09:58:51;;;;;;;16.33;4.93;;;;;;;;;;5029696;28;20045;-60
2022/05/15 10:01:17;;;;;;;;;;;;;;;;;;5038435;28;20042;-60
2022/05/15 10:03:48;;;;;;;13.63;4.47;;;;;;;;;;5046570;28;19974;-60
2022/05/15 10:06:19;;;;;;;12.57;4.05;;;;;;;;;;5042062;28;20100;-60
2022/05/15 10:08:46;;;;;;;12.80;4.57;;;;;;;;;;5043119;28;20048;-60
2022/05/15 10:11:16;;;;;;;13.20;4.70;;;;;;;;;;5046932;28;20037;-60
2022/05/15 10:13:50;;;;;;;16.23;4.85;;;;;;;;;;5035111;28;20398;-60
2022/05/15 10:16:25;;;;;;;16.45;4.82;;;;;;;;;;5034423;28;20049;-60
2022/05/15 10:18:54;;;;;;;14.70;4.57;;;;;;;;;;5038579;28;20036;-60
2022/05/15 10:21:22;;;;;;;14.02;4.10;;;;;;;;;;5037777;28;20382;-60
2022/05/15 10:24:00;;;;;;;18.70;5.63;;;;;;;;;;5044631;28;20103;-60
2022/05/15 10:26:31;;;;;;;19.02;5.20;;;;;;;;;;5041175;28;20088;-60
2022/05/15 10:29:09;;;;;;;15.63;5.18;;;;;;;;;;5035557;28;20557;-60
2022/05/15 10:31:39;;;;;;;15.68;4.40;;;;;;;;;;5042358;28;20069;-60
2022/05/15 10:34:11;;;;;;;10.75;3.72;;;;;;;;;;5042983;28;20067;-60
2022/05/15 10:36:37;;;;;;;15.07;4.63;;;;;;;;;;5038651;28;20056;-60
2022/05/15 10:39:06;;;;;;;18.48;5.13;;;;;;;;;;5045407;28;20086;-60
2022/05/15 10:41:41;;;;;;;13.02;4.22;;;;;;;;;;5043821;28;20383;-60
2022/05/15 10:44:12;;;;;;;15.43;4.20;;;;;;;;;;5038686;28;20053;-60
2022/05/15 10:47:04;;;;;;;11.70;4.10;;;;;;;;;;5043842;28;20415;-60
2022/05/15 10:49:33;;;;;;;11.43;4.47;;;;;;;;;;5028582;28;20072;-60
2022/05/15 10:52:16;;;;;;;14.30;4.07;;;;;;;;;;5031332;28;20060;-60
2022/05/15 10:57:46;;;;;;;12.88;4.70;;;;;;;;;;5035299;28;20041;-60
2022/05/15 11:00:18;;;;;;;15.75;5.20;;;;;;;;;;5037527;28;20095;-60
2022/05/15 11:03:03;;;;;;;14.30;4.55;;;;;;;;;;5036488;28;20046;-60
2022/05/15 11:05:42;;;;;;;11.80;4.13;;;;;;;;;;5041607;28;20128;-60
2022/05/15 11:08:25;;;;;;;13.40;4.60;;;;;;;;;;5036129;28;20041;-60
2022/05/15 11:10:51;;;;;;;14.73;4.50;;;;;;;;;;5038217;28;20049;-60
2022/05/15 11:13:22;;;;;;;14.85;5.32;;;;;;;;;;5027670;28;20044;-61
2022/05/15 11:16:03;;;;;;;16.15;5.22;;;;;;;;;;5044882;28;20491;-60
2022/05/15 11:18:47;;;;;;;14.40;4.25;;;;;;;;;;5045205;28;20053;-60
2022/05/15 11:21:34;;;;;;;13.43;4.07;;;;;;;;;;5040719;28;20458;-60
2022/05/15 11:24:00;;;;;;;11.48;4.00;;;;;;;;;;5057114;28;20063;-60
2022/05/15 11:26:28;;;;;;;13.77;4.28;;;;;;;;;;5059338;28;20045;-60
2022/05/15 11:28:57;;;;;;;14.65;4.35;;;;;;;;;;5049164;28;20037;-61
2022/05/15 11:31:28;;;;;;;12.90;4.00;;;;;;;;;;5050925;28;20063;-60
2022/05/15 11:33:59;;;;;;;9.98;4.22;;;;;;;;;;5047691;28;20039;-60
2022/05/15 11:36:25;;;;;;;15.80;3.60;;;;;;;;;;5036121;28;20051;-60
2022/05/15 11:39:08;;;;;;;11.23;3.47;;;;;;;;;;5035028;28;20049;-60
2022/05/15 11:41:34;;;;;;;11.93;3.95;;;;;;;;;;5030741;28;20125;-60
2022/05/15 11:44:22;;;;;;;12.23;4.10;;;;;;;;;;5031199;28;20128;-60
2022/05/15 11:46:48;;;;;;;12.05;3.88;;;;;;;;;;5024616;28;20056;-60
2022/05/15 11:49:34;;;;;;;13.25;4.47;;;;;;;;;;5030971;28;20053;-60
2022/05/15 11:52:06;;;;;;;17.10;4.18;;;;;;;;;;5065918;28;20052;-60
2022/05/15 11:54:33;;;;;;;;;;;;;;;;;;5053950;28;20632;-60
2022/05/15 11:57:00;;;;;;;10.30;3.97;;;;;;;;;;5050085;28;20294;-60
2022/05/15 11:59:27;;;;;;;13.52;4.45;;;;;;;;;;5048701;28;20045;-60
2022/05/15 12:01:55;;;;;;;13.63;4.65;;;;;;;;;;5048568;28;20403;-60
2022/05/15 12:04:41;;;;;;;16.15;4.72;;;;;;;;;;5046132;28;20048;-60
2022/05/15 12:07:07;;;;;;;12.23;4.50;;;;;;;;;;5029680;28;20458;-60
2022/05/15 12:09:44;;;;;;;13.48;4.63;;;;;;;;;;5046442;28;20098;-60
2022/05/15 12:12:27;;;;;;;12.88;4.28;;;;;;;;;;5059815;28;20502;-61
2022/05/15 12:15:13;;;;;;;11.50;4.45;;;;;;;;;;5064985;28;20078;-60
2022/05/15 12:17:44;;;;;;;13.77;4.40;;;;;;;;;;5039052;28;20081;-61
2022/05/15 12:20:16;;;;;;;12.60;3.97;;;;;;;;;;5030289;28;20484;-61
2022/05/15 12:22:48;;;;;;;10.07;3.90;;;;;;;;;;5030328;28;20046;-60
2022/05/15 12:25:15;;;;;;;12.10;3.58;;;;;;;;;;5033783;28;20071;-60
2022/05/15 12:28:50;;;;;;;13.23;4.05;;;;;;;;;;5048019;28;20079;-60
2022/05/15 12:30:46;;;;;;;12.52;3.83;;;;;;;;;;5049389;28;20067;-60
2022/05/15 12:33:13;;;;;;;12.27;3.65;;;;;;;;;;5049629;28;20099;-60
2022/05/15 12:35:41;;;;;;;13.88;3.75;;;;;;;;;;5044409;28;20090;-61
2022/05/15 12:38:13;;;;;;;12.55;4.20;;;;;;;;;;5050077;28;20901;-61
2022/05/15 12:40:39;;;;;;;;;;;;;;;;;;5066338;28;20053;-60
2022/05/15 12:43:25;;;;;;;8.43;3.67;;;;;;;;;;5064067;28;20027;-60
2022/05/15 12:45:51;;;;;;;12.00;4.20;;;;;;;;;;5049314;28;20499;-60
2022/05/15 12:48:19;;;;;;;9.60;3.88;;;;;;;;;;5067276;28;20067;-61
2022/05/15 12:50:51;;;;;;;13.65;3.85;;;;;;;;;;5060180;28;20439;-61
2022/05/15 12:53:42;;;;;;;10.30;3.85;;;;;;;;;;5058214;28;20816;-60
2022/05/15 12:56:08;;;;;;;12.25;3.58;;;;;;;;;;5046032;28;20133;-61
2022/05/15 12:58:35;;;;;;;9.13;3.20;;;;;;;;;;5039293;28;20139;-61
2022/05/15 13:01:01;;;;;;;14.35;3.83;;;;;;;;;;5048875;28;20045;-61
2022/05/15 13:03:28;;;;;;;11.27;3.95;;;;;;;;;;5055790;28;20634;-61
2022/05/15 13:05:56;;;;;;;12.40;3.90;;;;;;;;;;5055830;28;20106;-61
2022/05/15 13:08:23;;;;;;;10.70;3.40;;;;;;;;;;5044158;28;20057;-61
2022/05/15 13:10:55;;;;;;;10.27;3.38;;;;;;;;;;5040091;28;20049;-61
2022/05/15 13:13:30;;;;;;;11.20;3.78;;;;;;;;;;5031105;28;20048;-61
2022/05/15 13:15:58;;;;;;;8.68;3.58;;;;;;;;;;5033402;28;20049;-61
2022/05/15 13:18:28;;;;;;;11.07;4.00;;;;;;;;;;5031515;28;20124;-61
2022/05/15 13:20:56;;;;;;;11.95;3.67;;;;;;;;;;5049099;28;20443;-61
2022/05/15 13:23:25;;;;;;;10.30;4.10;;;;;;;;;;5049291;28;20044;-60
2022/05/15 13:25:52;;;;;;;12.90;4.22;;;;;;;;;;5048602;28;20048;-60
2022/05/15 13:28:19;;;;;;;10.48;3.53;;;;;;;;;;5041031;28;20511;-61
2022/05/15 13:30:45;;;;;;;9.95;3.50;;;;;;;;;;5029361;28;20092;-61
2022/05/15 13:33:13;;;;;;;10.57;3.63;;;;;;;;;;5043762;28;20076;-61
2022/05/15 13:35:44;;;;;;;12.90;3.53;;;;;;;;;;5049496;28;20094;-60
2022/05/15 13:38:13;;;;;;;11.50;3.85;;;;;;;;;;5047836;28;20045;-61
2022/05/15 13:43:32;;;;;;;8.20;3.28;;;;;;;;;;5048269;28;20057;-61
2022/05/15 13:45:59;;;;;;;11.40;3.63;;;;;;;;;;5043926;28;20071;-61
2022/05/15 13:48:26;;;;;;;10.15;3.60;;;;;;;;;;5032984;28;20041;-60
2022/05/15 13:50:54;;;;;;;11.68;4.07;;;;;;;;;;5028897;28;20046;-61
2022/05/15 13:53:26;;;;;;;11.75;3.70;;;;;;;;;;5043213;28;20079;-60
2022/05/15 13:56:06;;;;;;;9.13;3.20;;;;;;;;;;5048659;28;20778;-60
2022/05/15 13:58:58;;;;;;;10.48;3.50;;;;;;;;;;5048331;28;20045;-61
2022/05/15 14:01:29;;;;;;;10.05;3.33;;;;;;;;;;5031393;28;20410;-61
2022/05/15 14:03:56;;;;;;;11.38;3.45;;;;;;;;;;5029575;28;20103;-61
2022/05/15 14:06:24;;;;;;;10.55;3.15;;;;;;;;;;5046624;28;20076;-61
2022/05/15 14:09:02;;;;;;;11.75;3.65;;;;;;;;;;5047289;28;20124;-60
2022/05/15 14:11:46;;;;;;;9.82;3.10;;;;;;;;;;5029488;28;20045;-60
2022/05/15 14:14:12;;;;;;;10.00;3.83;;;;;;;;;;5038303;28;20079;-60
2022/05/15 14:16:38;;;;;;;9.00;3.28;;;;;;;;;;5040751;28;20763;-60
2022/05/15 14:19:21;;;;;;;10.82;3.38;;;;;;;;;;5047877;28;20037;-60
2022/05/15 14:21:59;;;;;;;14.32;3.80;;;;;;;;;;5047968;28;20499;-60
2022/05/15 14:24:26;;;;;;;8.82;3.33;;;;;;;;;;5047803;28;20144;-60
2022/05/15 14:26:52;;;;;;;8.13;3.70;;;;;;;;;;5048290;28;20049;-60
2022/05/15 14:29:18;;;;;;;9.43;3.22;;;;;;;;;;5046882;28;20053;-60
2022/05/15 14:31:45;;;;;;;8.85;3.03;;;;;;;;;;5039155;28;20504;-60
2022/05/15 14:34:12;;;;;;;10.75;3.25;;;;;;;;;;5036910;28;20080;-60
2022/05/15 14:36:38;;;;;;;9.95;3.45;;;;;;;;;;5047277;28;20171;-60
2022/05/15 14:39:04;;;;;;;10.13;3.40;;;;;;;;;;5046840;28;20045;-60
2022/05/15 14:41:30;;;;;;;12.40;4.20;;;;;;;;;;5028033;28;20071;-60
2022/05/15 14:43:56;;;;;;;9.90;2.85;;;;;;;;;;5043306;28;20799;-60
2022/05/15 14:46:24;;;;;;;12.45;3.35;;;;;;;;;;5047387;28;20098;-60
2022/05/15 14:48:50;;;;;;;9.95;3.30;;;;;;;;;;5046437;28;20185;-60
2022/05/15 14:51:18;;;;;;;8.73;3.35;;;;;;;;;;5036674;28;20041;-61
2022/05/15 14:53:44;;;;;;;10.95;3.58;;;;;;;;;;5046083;28;20483;-60
2022/05/15 14:56:10;;;;;;;14.93;3.55;;;;;;;;;;5047939;28;20049;-60
2022/05/15 14:58:51;;;;;;;10.02;3.10;;;;;;;;;;5047681;28;20052;-60